createdAt,value
2023-07-26T00:02:07.841Z,4.40
2023-07-26T00:04:35.891Z,4.70
2023-07-26T00:07:03.921Z,4.30
2023-07-26T00:09:32.132Z,4.80
2023-07-26T00:12:00.256Z,7.40
2023-07-26T00:14:28.413Z,6.40
2023-07-26T00:16:56.844Z,5.00
2023-07-26T00:19:24.850Z,8.50
2023-07-26T00:21:52.805Z,4.20
2023-07-26T00:24:20.634Z,4.30
2023-07-26T00:26:48.672Z,5.80
2023-07-26T00:29:16.654Z,4.90
2023-07-26T00:31:44.812Z,4.00
2023-07-26T00:34:12.849Z,4.80
2023-07-26T00:36:40.761Z,6.90
2023-07-26T00:39:08.828Z,6.50
2023-07-26T00:41:37.057Z,4.10
2023-07-26T00:44:07.866Z,5.50
2023-07-26T00:46:36.048Z,5.30
2023-07-26T00:49:04.755Z,3.90
2023-07-26T00:51:37.100Z,4.40
2023-07-26T00:54:09.437Z,4.50
2023-07-26T00:59:07.223Z,5.10
2023-07-26T01:01:35.818Z,4.40
2023-07-26T01:04:03.870Z,3.50
2023-07-26T01:07:08.556Z,3.70
2023-07-26T01:10:06.379Z,6.00
2023-07-26T01:12:54.361Z,5.00
2023-07-26T01:15:34.258Z,5.70
2023-07-26T01:18:09.883Z,3.30
2023-07-26T01:20:38.234Z,4.60
2023-07-26T01:23:06.848Z,2.90
2023-07-26T01:25:35.403Z,5.10
2023-07-26T01:28:03.667Z,3.40
2023-07-26T01:30:33.957Z,3.90
2023-07-26T01:33:06.171Z,3.60
2023-07-26T01:35:36.512Z,3.60
2023-07-26T01:38:05.308Z,4.70
2023-07-26T01:40:34.252Z,3.80
2023-07-26T01:43:02.248Z,5.00
2023-07-26T01:45:30.375Z,3.20
2023-07-26T01:47:59.115Z,4.60
2023-07-26T01:50:27.081Z,3.40
2023-07-26T01:52:54.882Z,3.80
2023-07-26T01:55:22.973Z,3.40
2023-07-26T01:57:51.060Z,4.40
2023-07-26T02:00:18.899Z,4.70
2023-07-26T02:02:47.137Z,5.00
2023-07-26T02:05:15.226Z,6.90
2023-07-26T02:07:43.133Z,3.40
2023-07-26T02:10:11.064Z,4.40
2023-07-26T02:12:38.960Z,3.90
2023-07-26T02:15:07.333Z,4.90
2023-07-26T02:17:35.967Z,4.50
2023-07-26T02:20:05.832Z,3.60
2023-07-26T02:22:34.002Z,6.10
2023-07-26T02:25:01.960Z,3.70
2023-07-26T02:27:30.011Z,3.90
2023-07-26T02:29:57.853Z,4.30
2023-07-26T02:32:25.859Z,4.10
2023-07-26T02:34:53.994Z,4.60
2023-07-26T02:37:21.927Z,5.40
2023-07-26T02:39:50.377Z,5.30
2023-07-26T02:42:18.356Z,5.60
2023-07-26T02:44:47.249Z,5.80
2023-07-26T02:47:15.381Z,5.90
2023-07-26T02:49:43.211Z,4.80
2023-07-26T02:52:11.201Z,6.20
2023-07-26T02:54:39.054Z,5.50
2023-07-26T02:57:07.239Z,6.40
2023-07-26T02:59:35.224Z,4.80
2023-07-26T03:02:03.247Z,6.20
2023-07-26T03:04:31.207Z,6.80
2023-07-26T03:06:59.062Z,5.30
2023-07-26T03:09:26.952Z,4.40
2023-07-26T03:11:54.940Z,4.80
2023-07-26T03:14:22.783Z,5.10
2023-07-26T03:16:51.046Z,5.50
2023-07-26T03:19:23.985Z,6.80
2023-07-26T03:21:51.893Z,7.40
2023-07-26T03:24:19.705Z,5.00
2023-07-26T03:26:47.868Z,6.20
2023-07-26T03:29:15.949Z,6.20
2023-07-26T03:31:43.807Z,6.30
2023-07-26T03:34:11.718Z,7.20
2023-07-26T03:36:39.650Z,8.00
2023-07-26T03:39:07.587Z,5.80
2023-07-26T03:41:35.337Z,6.70
2023-07-26T03:44:03.691Z,6.30
2023-07-26T03:46:31.915Z,5.70
2023-07-26T03:49:00.657Z,5.50
2023-07-26T03:51:28.455Z,5.40
2023-07-26T03:53:56.346Z,6.70
2023-07-26T03:56:24.241Z,5.90
2023-07-26T03:58:52.040Z,6.80
2023-07-26T04:01:20.120Z,6.10
2023-07-26T04:03:48.217Z,9.20
2023-07-26T04:06:16.748Z,6.60
2023-07-26T04:08:44.684Z,6.20
2023-07-26T04:11:12.921Z,4.70
2023-07-26T04:13:40.984Z,6.00
2023-07-26T04:16:20.075Z,8.10
2023-07-26T04:18:48.666Z,7.70
2023-07-26T04:21:18.634Z,6.70
2023-07-26T04:23:47.384Z,9.10
2023-07-26T04:26:15.152Z,8.10
2023-07-26T04:28:43.157Z,6.60
2023-07-26T04:31:11.082Z,5.80
2023-07-26T04:33:40.638Z,5.90
2023-07-26T04:36:08.665Z,5.60
2023-07-26T04:38:36.391Z,5.60
2023-07-26T04:41:05.625Z,7.30
2023-07-26T04:43:33.530Z,6.50
2023-07-26T04:46:01.518Z,6.90
2023-07-26T04:48:29.549Z,7.70
2023-07-26T04:50:57.426Z,6.40
2023-07-26T04:53:25.188Z,6.40
2023-07-26T04:55:53.294Z,6.50
2023-07-26T04:58:21.037Z,5.80
2023-07-26T05:00:49.017Z,6.70
2023-07-26T05:03:17.197Z,5.00
2023-07-26T05:05:51.569Z,5.20
2023-07-26T05:08:20.014Z,7.50
2023-07-26T05:10:54.090Z,5.90
2023-07-26T05:13:24.416Z,6.30
2023-07-26T05:15:52.286Z,6.00
2023-07-26T05:18:20.060Z,6.80
2023-07-26T05:20:54.570Z,6.30
2023-07-26T05:23:22.604Z,7.20
2023-07-26T05:25:50.486Z,6.70
2023-07-26T05:28:18.500Z,7.10
2023-07-26T05:30:46.280Z,7.90
2023-07-26T05:33:14.406Z,5.20
2023-07-26T05:35:42.220Z,5.20
2023-07-26T05:38:10.220Z,5.10
2023-07-26T05:40:38.071Z,5.20
2023-07-26T05:43:05.974Z,6.00
2023-07-26T05:45:34.146Z,5.50
2023-07-26T05:48:02.004Z,6.90
2023-07-26T05:50:29.942Z,6.80
2023-07-26T05:52:57.886Z,5.30
2023-07-26T05:55:25.737Z,4.60
2023-07-26T05:57:54.114Z,5.30
2023-07-26T06:00:22.571Z,5.10
2023-07-26T06:02:50.446Z,6.60
2023-07-26T06:05:18.317Z,7.60
2023-07-26T06:07:46.455Z,5.60
2023-07-26T06:10:14.979Z,6.20
2023-07-26T06:12:43.307Z,5.60
2023-07-26T06:15:11.253Z,7.00
2023-07-26T06:17:39.522Z,4.60
2023-07-26T06:20:07.931Z,4.60
2023-07-26T06:22:35.751Z,6.10
2023-07-26T06:25:04.458Z,4.90
2023-07-26T06:27:32.563Z,5.10
2023-07-26T06:30:00.503Z,6.10
2023-07-26T06:32:28.721Z,4.50
2023-07-26T06:34:58.536Z,3.80
2023-07-26T06:37:26.317Z,4.60
2023-07-26T06:39:54.302Z,7.40
2023-07-26T06:42:22.178Z,4.70
2023-07-26T06:44:49.969Z,6.00
2023-07-26T06:47:18.488Z,5.50
2023-07-26T06:49:46.675Z,5.60
2023-07-26T06:52:14.716Z,6.90
2023-07-26T06:54:42.711Z,4.50
2023-07-26T06:57:11.462Z,6.30
2023-07-26T06:59:39.253Z,6.40
2023-07-26T07:02:07.576Z,6.60
2023-07-26T07:04:36.145Z,6.60
2023-07-26T07:07:04.239Z,5.90
2023-07-26T07:09:32.101Z,5.10
2023-07-26T07:12:00.318Z,6.00
2023-07-26T07:14:28.383Z,4.70
2023-07-26T07:16:56.469Z,5.00
2023-07-26T07:19:24.242Z,3.70
2023-07-26T07:21:52.421Z,4.50
2023-07-26T07:24:20.380Z,5.40
2023-07-26T07:26:48.355Z,9.60
2023-07-26T07:29:16.187Z,4.60
2023-07-26T07:31:44.174Z,4.60
2023-07-26T07:34:11.985Z,7.00
2023-07-26T07:36:39.924Z,4.50
2023-07-26T07:39:10.564Z,9.90
2023-07-26T07:41:39.088Z,6.60
2023-07-26T07:44:07.164Z,8.40
2023-07-26T07:46:35.270Z,4.90
2023-07-26T07:49:03.898Z,5.00
2023-07-26T07:51:32.232Z,6.00
2023-07-26T07:54:00.281Z,5.80
2023-07-26T07:56:28.064Z,5.60
2023-07-26T07:58:56.020Z,6.10
2023-07-26T08:01:25.281Z,5.70
2023-07-26T08:03:53.222Z,7.10
2023-07-26T08:06:21.192Z,6.70
2023-07-26T08:08:49.014Z,5.80
2023-07-26T08:11:16.796Z,7.90
2023-07-26T08:13:44.992Z,5.90
2023-07-26T08:16:13.210Z,7.60
2023-07-26T08:18:41.224Z,6.00
2023-07-26T08:21:12.443Z,6.80
2023-07-26T08:23:41.169Z,8.10
2023-07-26T08:26:10.652Z,7.60
2023-07-26T08:28:38.598Z,6.20
2023-07-26T08:31:06.650Z,7.80
2023-07-26T08:33:34.533Z,9.40
2023-07-26T08:36:02.970Z,7.60
2023-07-26T08:38:31.102Z,6.10
2023-07-26T08:40:59.262Z,8.20
2023-07-26T08:43:32.115Z,8.50
2023-07-26T08:46:04.352Z,8.40
2023-07-26T08:48:33.623Z,7.40
2023-07-26T08:51:02.388Z,7.90
2023-07-26T08:53:31.133Z,7.10
2023-07-26T08:55:59.303Z,8.60
2023-07-26T08:58:27.799Z,8.60
2023-07-26T09:00:55.851Z,6.50
2023-07-26T09:03:24.015Z,7.10
2023-07-26T09:06:12.352Z,6.80
2023-07-26T09:08:40.290Z,7.90
2023-07-26T09:11:21.977Z,7.00
2023-07-26T09:13:56.647Z,8.10
2023-07-26T09:16:28.715Z,10.10
2023-07-26T09:19:05.940Z,7.90
2023-07-26T09:21:37.067Z,6.70
2023-07-26T09:24:05.792Z,6.70
2023-07-26T09:26:42.323Z,6.60
2023-07-26T09:29:12.590Z,7.80
2023-07-26T09:31:44.520Z,8.70
2023-07-26T09:34:14.681Z,7.40
2023-07-26T09:36:47.670Z,5.80
2023-07-26T09:39:17.405Z,7.60
2023-07-26T09:41:47.257Z,5.90
2023-07-26T09:44:20.273Z,7.40
2023-07-26T09:46:51.957Z,4.70
2023-07-26T09:49:24.902Z,6.90
2023-07-26T09:54:33.075Z,9.70
2023-07-26T09:57:02.439Z,6.10
2023-07-26T09:59:31.614Z,6.50
2023-07-26T10:02:04.977Z,5.60
2023-07-26T10:04:43.077Z,4.80
2023-07-26T10:07:13.602Z,10.80
2023-07-26T10:09:45.100Z,5.30
2023-07-26T10:12:13.519Z,4.50
2023-07-26T10:14:41.417Z,4.60
2023-07-26T10:17:11.562Z,5.80
2023-07-26T10:19:40.263Z,3.80
2023-07-26T10:22:08.533Z,7.10
2023-07-26T10:24:38.160Z,5.70
2023-07-26T10:27:06.484Z,7.70
2023-07-26T10:29:34.482Z,4.40
2023-07-26T10:32:07.776Z,3.50
2023-07-26T10:34:35.988Z,6.40
2023-07-26T10:37:20.695Z,5.80
2023-07-26T10:39:50.600Z,7.60
2023-07-26T10:42:26.440Z,4.00
2023-07-26T10:44:56.377Z,5.40
2023-07-26T10:47:24.508Z,3.80
2023-07-26T10:49:55.345Z,3.50
2023-07-26T10:52:23.450Z,5.90
2023-07-26T10:54:52.140Z,3.60
2023-07-26T10:57:21.589Z,6.40
2023-07-26T10:59:57.938Z,5.00
2023-07-26T11:02:38.738Z,5.70
2023-07-26T11:05:14.314Z,2.50
2023-07-26T11:08:09.180Z,4.20
2023-07-26T11:10:50.609Z,3.80
2023-07-26T11:13:28.428Z,3.80
2023-07-26T11:16:15.602Z,3.50
2023-07-26T11:18:44.558Z,4.00
2023-07-26T11:21:16.934Z,7.30
2023-07-26T11:23:45.907Z,6.30
2023-07-26T11:26:13.690Z,6.10
2023-07-26T11:28:42.576Z,3.50
2023-07-26T11:31:20.359Z,3.80
2023-07-26T11:33:49.354Z,4.10
2023-07-26T11:36:21.645Z,5.60
2023-07-26T11:41:21.034Z,5.90
2023-07-26T11:43:49.598Z,4.50
2023-07-26T11:46:27.379Z,5.00
2023-07-26T11:51:23.909Z,4.20
2023-07-26T11:53:56.891Z,6.10
2023-07-26T11:56:32.622Z,3.40
2023-07-26T11:59:01.452Z,6.40
2023-07-26T12:01:30.429Z,6.50
2023-07-26T12:03:58.694Z,2.70
2023-07-26T12:06:34.695Z,3.20
2023-07-26T12:09:13.105Z,5.40
2023-07-26T12:11:43.505Z,2.30
2023-07-26T12:14:16.854Z,4.20
2023-07-26T12:16:54.886Z,3.80
2023-07-26T12:19:25.298Z,2.90
2023-07-26T12:21:53.965Z,4.00
2023-07-26T12:24:22.133Z,3.10
2023-07-26T12:26:53.193Z,3.40
2023-07-26T12:29:29.368Z,4.70
2023-07-26T12:32:04.608Z,4.20
2023-07-26T12:34:34.400Z,3.10
2023-07-26T12:37:02.567Z,3.80
2023-07-26T12:39:30.945Z,3.20
2023-07-26T12:41:59.085Z,2.40
2023-07-26T12:44:28.210Z,1.70
2023-07-26T12:47:26.775Z,4.00
2023-07-26T12:49:44.757Z,5.20
2023-07-26T12:52:12.721Z,3.30
2023-07-26T12:54:40.707Z,3.00
2023-07-26T12:57:08.653Z,2.80
2023-07-26T12:59:36.718Z,2.10
2023-07-26T13:02:05.903Z,2.40
2023-07-26T13:04:33.995Z,3.90
2023-07-26T13:07:02.003Z,2.10
2023-07-26T13:09:29.848Z,4.30
2023-07-26T13:11:58.052Z,2.30
2023-07-26T13:14:26.277Z,2.30
2023-07-26T13:16:54.015Z,1.60
2023-07-26T13:19:22.160Z,3.20
2023-07-26T13:21:49.896Z,2.80
2023-07-26T13:24:18.079Z,3.00
2023-07-26T13:26:46.090Z,2.50
2023-07-26T13:29:13.935Z,2.10
2023-07-26T13:31:41.803Z,4.00
2023-07-26T13:34:09.807Z,3.70
2023-07-26T13:36:37.691Z,3.80
2023-07-26T13:39:24.167Z,4.00
2023-07-26T13:41:52.408Z,2.60
2023-07-26T13:44:21.068Z,3.40
2023-07-26T13:46:49.026Z,3.40
2023-07-26T13:49:17.382Z,2.20
2023-07-26T13:51:48.382Z,4.00
2023-07-26T13:54:16.296Z,4.10
2023-07-26T13:56:44.119Z,1.80
2023-07-26T13:59:12.084Z,2.50
2023-07-26T14:01:40.077Z,2.70
2023-07-26T14:04:08.418Z,3.30
2023-07-26T14:06:36.401Z,2.20
2023-07-26T14:09:05.616Z,6.20
2023-07-26T14:11:34.882Z,5.10
2023-07-26T14:14:04.394Z,3.20
2023-07-26T14:16:32.381Z,4.50
2023-07-26T14:19:00.656Z,2.10
2023-07-26T14:21:28.437Z,2.40
2023-07-26T14:23:56.387Z,4.10
2023-07-26T14:26:24.605Z,2.70
2023-07-26T14:28:52.490Z,2.90
2023-07-26T14:31:20.559Z,3.40
2023-07-26T14:33:49.037Z,3.60
2023-07-26T14:36:16.952Z,4.10
2023-07-26T14:38:44.783Z,5.60
2023-07-26T14:41:12.798Z,2.50
2023-07-26T14:43:41.119Z,2.60
2023-07-26T14:46:10.378Z,2.60
2023-07-26T14:48:38.667Z,2.30
2023-07-26T14:51:06.525Z,3.30
2023-07-26T14:53:34.501Z,3.80
2023-07-26T14:56:02.434Z,6.60
2023-07-26T14:58:30.186Z,4.00
2023-07-26T15:00:58.250Z,2.70
2023-07-26T15:03:26.457Z,3.00
2023-07-26T15:05:54.843Z,4.90
2023-07-26T15:08:22.806Z,2.00
2023-07-26T15:10:51.727Z,3.30
2023-07-26T15:13:19.701Z,3.60
2023-07-26T15:15:47.458Z,5.20
2023-07-26T15:18:15.486Z,3.00
2023-07-26T15:20:43.893Z,2.30
2023-07-26T15:23:13.081Z,3.00
2023-07-26T15:25:41.491Z,2.10
2023-07-26T15:28:09.529Z,2.90
2023-07-26T15:30:38.228Z,4.50
2023-07-26T15:33:06.826Z,3.60
2023-07-26T15:35:37.906Z,2.20
2023-07-26T15:38:07.240Z,1.60
2023-07-26T15:43:22.973Z,2.70
2023-07-26T15:48:22.540Z,2.20
2023-07-26T15:53:22.581Z,1.80
2023-07-26T15:55:53.771Z,2.60
2023-07-26T15:58:27.775Z,2.60
2023-07-26T16:00:58.925Z,4.00
2023-07-26T16:11:00.754Z,2.40
2023-07-26T16:13:28.565Z,2.10
2023-07-26T16:23:28.081Z,2.30
2023-07-26T16:25:56.057Z,2.80
2023-07-26T16:28:23.854Z,4.10
2023-07-26T16:30:51.847Z,3.50
2023-07-26T16:33:20.016Z,2.50
2023-07-26T16:35:47.889Z,4.50
2023-07-26T16:38:15.957Z,4.00
2023-07-26T16:40:43.826Z,2.20
2023-07-26T16:43:15.141Z,3.40
2023-07-26T16:45:43.096Z,2.80
2023-07-26T16:48:11.121Z,3.10
2023-07-26T16:50:39.048Z,2.60
2023-07-26T16:53:08.304Z,3.20
2023-07-26T16:55:36.248Z,3.60
2023-07-26T16:58:04.442Z,3.00
2023-07-26T17:00:33.009Z,3.70
2023-07-26T17:03:01.340Z,3.60
2023-07-26T17:05:29.584Z,2.90
2023-07-26T17:07:57.645Z,3.20
2023-07-26T17:10:25.681Z,3.50
2023-07-26T17:12:53.661Z,3.20
2023-07-26T17:15:21.916Z,3.90
2023-07-26T17:17:50.035Z,2.80
2023-07-26T17:20:18.733Z,3.30
2023-07-26T17:22:47.053Z,3.40
2023-07-26T17:25:15.283Z,3.30
2023-07-26T17:27:43.145Z,4.30
2023-07-26T17:30:11.797Z,6.10
2023-07-26T17:32:39.788Z,2.80
2023-07-26T17:35:10.098Z,4.00
2023-07-26T17:37:38.634Z,5.20
2023-07-26T17:40:07.152Z,3.90
2023-07-26T17:42:35.523Z,3.00
2023-07-26T17:45:05.202Z,2.80
2023-07-26T17:47:32.988Z,2.50
2023-07-26T17:50:00.930Z,4.60
2023-07-26T17:52:29.287Z,4.60
2023-07-26T17:54:57.253Z,2.60
2023-07-26T17:57:25.778Z,4.50
2023-07-26T17:59:53.752Z,3.90
2023-07-26T18:02:21.520Z,3.00
2023-07-26T18:04:49.338Z,4.10
2023-07-26T18:07:17.406Z,3.10
2023-07-26T18:09:45.943Z,2.10
2023-07-26T18:12:14.044Z,3.40
2023-07-26T18:14:41.887Z,3.00
2023-07-26T18:17:09.927Z,2.90
2023-07-26T18:19:37.812Z,2.50
2023-07-26T18:22:06.317Z,2.00
2023-07-26T18:24:34.280Z,3.00
2023-07-26T18:27:02.305Z,3.30
2023-07-26T18:29:30.221Z,2.50
2023-07-26T18:31:58.099Z,3.80
2023-07-26T18:34:25.914Z,3.10
2023-07-26T18:36:53.956Z,3.00
2023-07-26T18:39:22.325Z,3.30
2023-07-26T18:41:50.238Z,3.20
2023-07-26T18:44:18.275Z,2.70
2023-07-26T18:46:46.268Z,2.60
2023-07-26T18:49:14.126Z,2.50
2023-07-26T18:51:41.973Z,2.40
2023-07-26T18:54:09.784Z,3.70
2023-07-26T18:56:37.661Z,3.70
2023-07-26T18:59:05.565Z,2.70
2023-07-26T19:01:34.050Z,3.00
2023-07-26T19:04:02.063Z,4.00
2023-07-26T19:06:30.060Z,2.90
2023-07-26T19:08:58.134Z,3.20
2023-07-26T19:11:27.609Z,2.70
2023-07-26T19:13:55.829Z,2.40
2023-07-26T19:16:24.327Z,3.40
2023-07-26T19:18:53.552Z,3.10
2023-07-26T19:21:21.582Z,2.40
2023-07-26T19:23:49.529Z,2.60
2023-07-26T19:26:17.954Z,3.80
2023-07-26T19:28:47.045Z,3.30
2023-07-26T19:31:15.703Z,2.90
2023-07-26T19:33:44.479Z,5.20
2023-07-26T19:36:12.484Z,1.90
2023-07-26T19:38:40.861Z,4.10
2023-07-26T19:41:19.675Z,4.40
2023-07-26T19:43:48.963Z,2.30
2023-07-26T19:46:18.064Z,4.70
2023-07-26T19:48:51.703Z,3.60
2023-07-26T19:51:20.526Z,3.00
2023-07-26T19:53:48.377Z,4.10
2023-07-26T19:56:16.277Z,3.90
2023-07-26T19:58:44.192Z,5.20
2023-07-26T20:01:12.148Z,5.50
2023-07-26T20:03:40.098Z,4.90
2023-07-26T20:06:08.096Z,5.10
2023-07-26T20:08:35.896Z,6.40
2023-07-26T20:11:03.903Z,4.30
2023-07-26T20:13:31.992Z,3.60
2023-07-26T20:15:59.839Z,4.70
2023-07-26T20:18:28.062Z,3.30
2023-07-26T20:20:56.595Z,4.40
2023-07-26T20:23:24.547Z,3.40
2023-07-26T20:25:52.482Z,3.00
2023-07-26T20:28:20.395Z,3.80
2023-07-26T20:30:48.263Z,5.20
2023-07-26T20:33:16.252Z,3.30
2023-07-26T20:35:47.109Z,4.50
2023-07-26T20:38:15.002Z,3.20
2023-07-26T20:40:42.812Z,3.80
2023-07-26T20:43:10.747Z,3.40
2023-07-26T20:45:38.935Z,4.10
2023-07-26T20:48:07.190Z,3.60
2023-07-26T20:50:36.446Z,3.60
2023-07-26T20:53:04.597Z,3.50
2023-07-26T20:55:32.433Z,3.10
2023-07-26T20:58:00.292Z,3.60
2023-07-26T21:00:47.018Z,5.00
2023-07-26T21:03:14.940Z,3.80
2023-07-26T21:05:46.516Z,3.60
2023-07-26T21:08:14.683Z,3.00
2023-07-26T21:10:43.404Z,4.70
2023-07-26T21:13:11.213Z,3.00
2023-07-26T21:15:39.185Z,3.70
2023-07-26T21:18:07.242Z,3.50
2023-07-26T21:20:36.356Z,5.00
2023-07-26T21:23:04.239Z,2.90
2023-07-26T21:25:32.200Z,2.70
2023-07-26T21:28:00.140Z,3.50
2023-07-26T21:30:28.832Z,4.90
2023-07-26T21:32:57.066Z,3.50
2023-07-26T21:35:24.908Z,4.00
2023-07-26T21:37:52.693Z,5.10
2023-07-26T21:40:20.664Z,5.10
2023-07-26T21:42:48.514Z,3.00
2023-07-26T21:45:16.375Z,4.30
2023-07-26T21:47:44.337Z,4.60
2023-07-26T21:50:12.427Z,3.50
2023-07-26T21:52:40.292Z,4.90
2023-07-26T21:55:08.823Z,4.50
2023-07-26T21:57:40.041Z,7.00
2023-07-26T22:00:12.509Z,3.40
2023-07-26T22:02:40.634Z,3.30
2023-07-26T22:05:09.624Z,4.90
2023-07-26T22:07:37.714Z,3.50
2023-07-26T22:10:05.978Z,4.90
2023-07-26T22:12:34.004Z,5.90
2023-07-26T22:15:01.996Z,3.90
2023-07-26T22:17:30.189Z,3.20
2023-07-26T22:19:58.333Z,4.50
2023-07-26T22:22:27.440Z,5.00
2023-07-26T22:24:55.663Z,3.60
2023-07-26T22:27:23.618Z,4.10
2023-07-26T22:29:51.706Z,2.70
2023-07-26T22:32:19.549Z,4.50
2023-07-26T22:34:47.539Z,3.30
2023-07-26T22:37:15.521Z,6.10
2023-07-26T22:39:43.408Z,4.90
2023-07-26T22:42:11.361Z,4.70
2023-07-26T22:44:39.176Z,6.10
2023-07-26T22:47:08.103Z,7.00
2023-07-26T22:49:36.214Z,5.50
2023-07-26T22:52:04.335Z,6.60
2023-07-26T22:54:32.176Z,6.80
2023-07-26T22:57:00.098Z,4.80
2023-07-26T22:59:28.091Z,8.40
2023-07-26T23:01:56.123Z,10.00
2023-07-26T23:04:23.904Z,6.90
2023-07-26T23:06:51.978Z,5.90
2023-07-26T23:09:19.789Z,6.20
2023-07-26T23:11:47.534Z,5.80
2023-07-26T23:14:15.570Z,7.30
2023-07-26T23:16:43.465Z,8.40
2023-07-26T23:19:11.324Z,8.40
2023-07-26T23:21:39.417Z,8.20
2023-07-26T23:24:07.493Z,7.50
2023-07-26T23:26:35.837Z,7.60
2023-07-26T23:29:04.170Z,5.70
2023-07-26T23:31:32.054Z,8.20
2023-07-26T23:34:00.810Z,5.50
2023-07-26T23:36:28.634Z,5.90
2023-07-26T23:38:56.760Z,5.50
2023-07-26T23:41:24.878Z,5.60
2023-07-26T23:43:52.846Z,6.00
2023-07-26T23:46:20.739Z,6.30
2023-07-26T23:48:51.239Z,5.10
2023-07-26T23:51:19.183Z,4.70
2023-07-26T23:53:47.329Z,4.80
2023-07-26T23:56:15.311Z,5.10
2023-07-26T23:58:43.122Z,5.10
